Time;durP1;ratioP1;P1;durP2;ratioP2;P2;SDS_P1;SDS_P2;PMS_P1;PMS_P2;Temp;Humidity;BMP_temperature;BMP_pressure;BME280_temperature;BME280_humidity;BME280_pressure;Samples;Min_cycle;Max_cycle;Signal;HPM_P1;HPM_P2
2023/06/01 00:02:03;;;;;;;12.88;5.70;;;12.40;99.90;;;;;;5115085;27;21022;-90
2023/06/01 00:04:29;;;;;;;13.33;6.33;;;12.50;99.90;;;;;;5115564;27;20517;-89
2023/06/01 00:06:54;;;;;;;13.23;5.87;;;12.70;99.90;;;;;;5114731;27;20492;-90
2023/06/01 00:09:20;;;;;;;10.73;6.05;;;12.40;99.90;;;;;;5114760;27;20827;-89
2023/06/01 00:11:46;;;;;;;13.37;6.33;;;12.40;99.90;;;;;;5115010;27;20404;-89
2023/06/01 00:14:11;;;;;;;11.43;5.95;;;12.40;99.90;;;;;;5115219;27;20400;-89
2023/06/01 00:16:37;;;;;;;12.17;6.17;;;12.40;99.90;;;;;;5115093;27;20393;-90
2023/06/01 00:19:03;;;;;;;12.00;6.50;;;12.40;99.90;;;;;;5115333;27;20397;-90
2023/06/01 00:21:32;;;;;;;12.07;6.32;;;12.30;99.90;;;;;;5115383;27;20432;-90
2023/06/01 00:23:58;;;;;;;11.95;6.35;;;12.60;99.90;;;;;;5114728;27;20437;-90
2023/06/01 00:26:25;;;;;;;12.63;6.22;;;12.30;99.90;;;;;;5115563;27;20483;-88
2023/06/01 00:28:50;;;;;;;12.75;5.88;;;12.30;99.90;;;;;;5115172;27;20480;-90
2023/06/01 00:31:16;;;;;;;12.50;5.95;;;12.10;99.90;;;;;;5115268;27;20962;-88
2023/06/01 00:33:42;;;;;;;12.32;5.70;;;12.40;99.90;;;;;;5114432;27;20401;-89
2023/06/01 00:36:08;;;;;;;10.80;5.07;;;12.30;99.90;;;;;;5114894;27;20397;-89
2023/06/01 00:38:33;;;;;;;9.70;4.93;;;12.30;99.90;;;;;;5132452;27;20909;-88
2023/06/01 00:40:59;;;;;;;10.43;4.70;;;12.30;99.90;;;;;;5114809;27;20426;-89
2023/06/01 00:43:24;;;;;;;9.70;4.53;;;12.30;99.90;;;;;;5115242;27;20895;-89
2023/06/01 00:45:50;;;;;;;9.70;4.72;;;12.20;99.90;;;;;;5114518;27;20412;-88
2023/06/01 00:48:17;;;;;;;10.63;4.90;;;12.20;99.90;;;;;;5114601;27;20408;-90
2023/06/01 00:50:43;;;;;;;10.20;4.22;;;12.20;99.90;;;;;;5113935;27;20449;-89
2023/06/01 00:53:15;;;;;;;11.05;4.97;;;12.20;99.90;;;;;;5114198;27;20967;-89
2023/06/01 00:55:41;;;;;;;10.15;5.10;;;12.20;99.90;;;;;;5114804;27;20903;-89
2023/06/01 00:58:07;;;;;;;10.63;4.40;;;12.20;99.90;;;;;;5113908;27;20396;-88
2023/06/01 01:00:32;;;;;;;9.93;4.00;;;12.30;99.90;;;;;;5114800;27;20397;-90
2023/06/01 01:03:00;;;;;;;12.93;4.50;;;12.20;99.90;;;;;;5113820;27;20417;-89
2023/06/01 01:05:26;;;;;;;9.07;4.45;;;12.20;99.90;;;;;;5113723;27;20412;-89
2023/06/01 01:08:12;;;;;;;10.90;4.90;;;12.20;99.90;;;;;;5131203;27;20397;-89
2023/06/01 01:10:55;;;;;;;12.77;4.80;;;12.20;99.90;;;;;;5114319;27;20405;-88
2023/06/01 01:13:36;;;;;;;9.80;5.50;;;12.20;99.90;;;;;;5114129;27;20944;-89
2023/06/01 01:16:17;;;;;;;10.50;5.18;;;12.10;99.90;;;;;;5113867;27;20906;-89
2023/06/01 01:18:54;;;;;;;15.23;6.60;;;12.10;99.90;;;;;;5113742;27;20461;-88
2023/06/01 01:21:28;;;;;;;13.70;6.78;;;12.30;99.90;;;;;;5113614;27;20452;-90
2023/06/01 01:23:59;;;;;;;14.18;6.85;;;12.00;99.90;;;;;;5130587;27;20401;-89
2023/06/01 01:26:33;;;;;;;12.73;6.93;;;12.00;99.90;;;;;;5113990;27;20401;-90
2023/06/01 01:29:06;;;;;;;12.30;7.10;;;12.00;99.90;;;;;;5130572;27;20458;-89
2023/06/01 01:31:33;;;;;;;11.57;7.20;;;12.00;99.90;;;;;;5131291;27;20763;-90
2023/06/01 01:34:01;;;;;;;15.18;7.60;;;12.40;99.90;;;;;;5113220;27;20426;-89
2023/06/01 01:36:28;;;;;;;13.32;7.35;;;12.00;99.90;;;;;;5113222;27;20389;-89
2023/06/01 01:38:54;;;;;;;15.70;7.63;;;12.00;99.90;;;;;;5130258;27;20400;-89
2023/06/01 01:41:21;;;;;;;13.18;7.00;;;12.00;99.90;;;;;;5112619;27;20425;-87
2023/06/01 01:43:48;;;;;;;12.40;6.82;;;12.00;99.90;;;;;;5129970;27;20404;-89
2023/06/01 01:46:26;;;;;;;13.50;7.10;;;12.10;99.90;;;;;;5112960;27;20397;-88
2023/06/01 01:49:29;;;;;;;11.32;6.28;;;11.90;99.90;;;;;;5113735;27;20741;-89
2023/06/01 01:52:08;;;;;;;13.15;6.47;;;11.90;99.90;;;;;;5113002;27;20813;-88
2023/06/01 01:54:41;;;;;;;10.73;5.75;;;11.90;99.90;;;;;;5130225;27;20891;-89
2023/06/01 01:57:08;;;;;;;10.87;5.67;;;11.90;99.90;;;;;;5113637;27;20429;-88
2023/06/01 01:59:35;;;;;;;10.40;5.43;;;11.90;99.90;;;;;;5112936;27;20480;-88
2023/06/01 02:02:00;;;;;;;9.60;4.95;;;12.00;99.90;;;;;;5130267;27;20432;-89
2023/06/01 02:04:26;;;;;;;7.72;4.90;;;12.10;99.90;;;;;;5112886;27;20404;-89
2023/06/01 02:06:52;;;;;;;10.27;4.23;;;12.00;99.90;;;;;;5113420;27;20438;-88
2023/06/01 02:09:17;;;;;;;8.85;4.80;;;12.00;99.90;;;;;;5113023;27;20397;-88
2023/06/01 02:11:43;;;;;;;8.98;4.68;;;12.00;99.90;;;;;;5112586;27;20436;-88
2023/06/01 02:14:09;;;;;;;9.73;5.03;;;12.00;99.90;;;;;;5112885;27;20974;-89
2023/06/01 02:16:35;;;;;;;8.70;4.47;;;12.00;99.90;;;;;;5113003;27;20401;-90
2023/06/01 02:19:02;;;;;;;9.77;4.72;;;11.80;99.90;;;;;;5112411;27;20759;-89
2023/06/01 02:21:28;;;;;;;10.68;4.53;;;12.20;99.90;;;;;;5112386;27;20420;-89
2023/06/01 02:23:54;;;;;;;8.85;4.43;;;12.10;99.90;;;;;;5129330;27;20759;-89
2023/06/01 02:26:21;;;;;;;11.50;5.13;;;12.30;99.90;;;;;;5112146;27;20435;-88
2023/06/01 02:28:47;;;;;;;10.70;5.13;;;11.90;99.90;;;;;;5129921;27;20393;-89
2023/06/01 02:31:14;;;;;;;10.68;5.40;;;11.90;99.90;;;;;;5112545;27;20751;-88
2023/06/01 02:33:40;;;;;;;11.37;5.50;;;11.90;99.90;;;;;;5112431;27;20393;-88
2023/06/01 02:36:06;;;;;;;9.07;5.20;;;11.90;99.90;;;;;;5112474;27;20755;-87
2023/06/01 02:38:31;;;;;;;11.07;5.70;;;11.90;99.90;;;;;;5112216;27;20452;-89
2023/06/01 02:40:57;;;;;;;9.88;5.68;;;11.90;99.90;;;;;;5112277;27;20381;-89
2023/06/01 02:43:22;;;;;;;10.27;5.43;;;11.90;99.90;;;;;;5129381;27;20405;-89
2023/06/01 02:45:48;;;;;;;10.93;5.47;;;11.90;99.90;;;;;;5112340;27;20415;-89
2023/06/01 02:48:14;;;;;;;11.10;6.50;;;12.20;99.90;;;;;;5112443;27;20389;-89
2023/06/01 02:50:40;;;;;;;10.23;6.35;;;12.00;99.90;;;;;;5111979;27;20397;-88
2023/06/01 02:53:06;;;;;;;10.15;6.00;;;11.90;99.90;;;;;;5112290;27;20401;-90
2023/06/01 02:55:31;;;;;;;8.10;4.53;;;11.90;99.90;;;;;;5111880;27;20409;-88
2023/06/01 02:57:57;;;;;;;8.50;3.87;;;11.90;99.90;;;;;;5112550;27;20476;-89
2023/06/01 03:00:22;;;;;;;7.28;3.42;;;11.90;99.90;;;;;;5111485;27;20422;-89
2023/06/01 03:02:49;;;;;;;7.30;3.40;;;11.90;99.90;;;;;;5112241;27;20429;-88
2023/06/01 03:05:15;;;;;;;5.50;2.53;;;11.90;99.90;;;;;;5111462;27;20433;-88
2023/06/01 03:07:47;;;;;;;6.28;2.70;;;12.30;99.90;;;;;;5111441;27;20456;-88
2023/06/01 03:10:13;;;;;;;6.43;3.00;;;11.90;99.90;;;;;;5112109;27;21024;-88
2023/06/01 03:12:39;;;;;;;7.50;3.00;;;11.90;99.90;;;;;;5111482;27;20401;-89
2023/06/01 03:15:05;;;;;;;6.60;2.70;;;11.90;99.90;;;;;;5111950;27;20438;-89
2023/06/01 03:17:33;;;;;;;6.82;2.70;;;11.80;99.90;;;;;;5111629;27;20401;-89
2023/06/01 03:20:00;;;;;;;8.65;3.17;;;11.90;99.90;;;;;;5129256;27;20392;-89
2023/06/01 03:22:25;;;;;;;7.60;3.00;;;11.90;99.90;;;;;;5111438;27;20409;-89
2023/06/01 03:24:52;;;;;;;7.90;3.00;;;11.90;99.90;;;;;;5107907;28;21049;-89
2023/06/01 03:27:22;;;;;;;8.63;3.78;;;11.90;99.90;;;;;;5108611;28;20800;-88
2023/06/01 03:29:47;;;;;;;8.00;3.28;;;11.90;99.90;;;;;;5110665;27;20387;-88
2023/06/01 03:32:14;;;;;;;8.00;3.23;;;11.80;99.90;;;;;;5112364;27;20386;-89
2023/06/01 03:34:40;;;;;;;6.50;3.15;;;11.80;99.90;;;;;;5112343;27;20387;-87
2023/06/01 03:37:07;;;;;;;5.95;2.90;;;11.80;99.90;;;;;;5112384;27;20475;-88
2023/06/01 03:39:35;;;;;;;7.72;3.05;;;11.80;99.90;;;;;;5111812;27;20401;-89
2023/06/01 03:42:01;;;;;;;6.22;3.15;;;12.00;99.90;;;;;;5112086;27;20417;-89
2023/06/01 03:44:27;;;;;;;9.88;3.50;;;11.90;99.90;;;;;;5111939;27;20798;-88
2023/06/01 03:46:52;;;;;;;9.40;3.53;;;11.80;99.90;;;;;;5111884;27;20486;-88
2023/06/01 03:49:18;;;;;;;6.03;3.07;;;11.80;99.90;;;;;;5111726;27;20464;-88
2023/06/01 03:51:44;;;;;;;8.75;3.80;;;11.80;99.90;;;;;;5128764;27;20395;-89
2023/06/01 03:54:11;;;;;;;8.30;3.25;;;12.00;99.90;;;;;;5112416;27;20403;-88
2023/06/01 03:56:36;;;;;;;7.30;3.50;;;11.80;99.90;;;;;;5111379;27;20675;-88
2023/06/01 03:59:02;;;;;;;6.80;3.25;;;11.80;99.90;;;;;;5112230;27;20467;-88
2023/06/01 04:01:29;;;;;;;7.60;3.83;;;11.80;99.90;;;;;;5111274;27;20862;-88
2023/06/01 04:03:56;;;;;;;8.23;4.03;;;11.90;99.90;;;;;;5128823;27;20394;-88
2023/06/01 04:06:23;;;;;;;7.70;2.80;;;11.80;99.90;;;;;;5129015;27;20390;-90
2023/06/01 04:08:55;;;;;;;7.05;3.28;;;11.80;99.90;;;;;;5111723;27;20852;-89
2023/06/01 04:11:22;;;;;;;7.70;3.40;;;11.90;99.90;;;;;;5111297;27;20440;-89
2023/06/01 04:13:48;;;;;;;6.90;2.92;;;12.00;99.90;;;;;;5128366;27;20893;-89
2023/06/01 04:16:13;;;;;;;8.63;3.20;;;11.90;99.90;;;;;;5111684;27;20745;-88
2023/06/01 04:18:39;;;;;;;5.60;2.90;;;11.90;99.90;;;;;;5111048;27;20414;-88
2023/06/01 04:21:06;;;;;;;8.30;3.77;;;11.90;99.90;;;;;;5111343;27;20399;-90
2023/06/01 04:23:32;;;;;;;7.80;3.10;;;11.90;99.90;;;;;;5114466;27;20401;-88
2023/06/01 04:25:59;;;;;;;9.07;3.37;;;11.90;99.90;;;;;;5114378;27;20959;-89
2023/06/01 04:28:28;;;;;;;8.40;3.55;;;11.90;99.90;;;;;;5114950;27;20755;-89
2023/06/01 04:30:54;;;;;;;7.22;3.47;;;12.20;99.90;;;;;;5114219;27;20530;-89
2023/06/01 04:33:22;;;;;;;7.65;3.50;;;11.90;99.90;;;;;;5114530;27;20505;-89
2023/06/01 04:35:48;;;;;;;7.47;3.13;;;12.00;99.90;;;;;;5114045;27;20756;-88
2023/06/01 04:38:16;;;;;;;8.98;3.30;;;12.00;99.90;;;;;;5114435;27;20741;-89
2023/06/01 04:40:44;;;;;;;8.10;3.28;;;12.00;99.90;;;;;;5129966;27;20536;-89
2023/06/01 04:43:11;;;;;;;7.78;3.50;;;12.00;99.90;;;;;;5114314;27;20927;-90
2023/06/01 04:45:38;;;;;;;7.95;3.42;;;12.00;99.90;;;;;;5114927;27;20759;-90
2023/06/01 04:48:10;;;;;;;6.95;3.60;;;12.30;99.90;;;;;;5114530;27;20408;-88
2023/06/01 04:50:37;;;;;;;7.50;3.53;;;12.10;99.90;;;;;;5131881;27;20788;-88
2023/06/01 04:53:03;;;;;;;9.25;3.90;;;12.10;99.90;;;;;;5114016;27;20404;-90
2023/06/01 04:55:29;;;;;;;8.97;3.60;;;12.10;99.90;;;;;;5114200;27;20913;-89
2023/06/01 04:57:55;;;;;;;6.28;3.05;;;12.10;99.90;;;;;;5113851;27;20432;-88
2023/06/01 05:00:21;;;;;;;9.03;3.50;;;12.20;99.90;;;;;;5113958;27;20448;-89
2023/06/01 05:02:48;;;;;;;7.43;3.60;;;12.20;99.90;;;;;;5130960;27;20505;-89
2023/06/01 05:05:15;;;;;;;8.98;3.47;;;12.20;99.90;;;;;;5113500;27;20397;-89
2023/06/01 05:07:41;;;;;;;9.25;3.47;;;12.20;99.90;;;;;;5131039;27;20487;-89
2023/06/01 05:10:09;;;;;;;9.05;3.70;;;12.20;99.90;;;;;;5113971;27;20929;-90
2023/06/01 05:12:36;;;;;;;8.27;3.80;;;12.30;99.90;;;;;;5114075;27;20440;-89
2023/06/01 05:15:03;;;;;;;7.90;3.83;;;12.30;99.90;;;;;;5113436;27;20397;-89
2023/06/01 05:17:29;;;;;;;10.97;3.83;;;12.30;99.90;;;;;;5130969;27;20405;-87
2023/06/01 05:19:56;;;;;;;8.03;4.07;;;12.30;99.90;;;;;;5113625;27;20979;-90
2023/06/01 05:22:22;;;;;;;10.50;4.50;;;12.60;99.90;;;;;;5113687;27;20429;-87
2023/06/01 05:24:48;;;;;;;7.18;4.05;;;12.40;99.90;;;;;;5113139;27;20429;-88
2023/06/01 05:27:14;;;;;;;10.75;4.47;;;12.40;99.90;;;;;;5130145;27;20429;-89
2023/06/01 05:29:40;;;;;;;9.73;4.60;;;12.40;99.90;;;;;;5130758;27;20443;-89
2023/06/01 05:32:06;;;;;;;10.80;4.20;;;12.40;99.90;;;;;;5130758;27;20452;-88
2023/06/01 05:34:32;;;;;;;8.80;4.53;;;12.40;99.90;;;;;;5130292;27;21180;-88
2023/06/01 05:36:57;;;;;;;9.20;3.87;;;12.50;99.90;;;;;;5113472;27;20763;-88
2023/06/01 05:39:27;;;;;;;9.05;3.42;;;12.50;99.90;;;;;;5113489;27;20447;-89
2023/06/01 05:41:53;;;;;;;8.75;3.20;;;12.50;99.90;;;;;;5113346;27;20916;-90
2023/06/01 05:44:19;;;;;;;8.27;3.28;;;12.50;99.90;;;;;;5130090;27;20397;-90
2023/06/01 05:46:45;;;;;;;6.30;2.90;;;12.60;99.90;;;;;;5130189;27;20909;-89
2023/06/01 05:49:10;;;;;;;7.23;2.57;;;12.60;99.90;;;;;;5112658;27;20397;-89
2023/06/01 05:51:37;;;;;;;7.22;2.67;;;12.60;99.90;;;;;;5113191;27;20395;-89
2023/06/01 05:54:04;;;;;;;8.63;2.85;;;12.60;99.90;;;;;;5129669;27;20389;-88
2023/06/01 05:56:30;;;;;;;7.82;2.33;;;12.60;99.90;;;;;;5112938;27;20397;-88
2023/06/01 05:58:56;;;;;;;6.65;2.45;;;12.60;99.90;;;;;;5113107;27;20431;-88
2023/06/01 06:01:22;;;;;;;8.25;2.63;;;12.50;99.90;;;;;;5112520;27;20421;-89
2023/06/01 06:03:48;;;;;;;8.48;2.60;;;12.50;99.90;;;;;;5112670;27;20476;-87
2023/06/01 06:06:13;;;;;;;8.88;2.40;;;12.60;99.90;;;;;;5112735;27;20445;-88
2023/06/01 06:08:39;;;;;;;8.80;2.90;;;12.60;99.90;;;;;;5112809;27;20397;-89
2023/06/01 06:11:05;;;;;;;8.70;2.65;;;12.60;99.90;;;;;;5112837;27;20435;-89
2023/06/01 06:13:30;;;;;;;7.97;2.90;;;12.70;99.90;;;;;;5112647;27;20568;-88
2023/06/01 06:15:56;;;;;;;10.30;2.90;;;12.60;99.90;;;;;;5112627;27;20404;-90
2023/06/01 06:18:22;;;;;;;7.03;2.33;;;12.70;99.90;;;;;;5112708;27;20895;-89
2023/06/01 06:20:47;;;;;;;7.03;2.40;;;12.70;99.90;;;;;;5112550;27;20907;-87
2023/06/01 06:23:13;;;;;;;8.27;2.53;;;12.70;99.90;;;;;;5147803;27;20538;-88
2023/06/01 06:25:40;;;;;;;7.77;2.50;;;12.90;99.90;;;;;;5112467;27;20404;-89
2023/06/01 06:28:06;;;;;;;8.30;3.20;;;12.70;99.90;;;;;;5111884;27;20401;-89
2023/06/01 06:30:31;;;;;;;7.53;2.50;;;12.80;99.90;;;;;;5112557;27;20415;-88
2023/06/01 06:32:57;;;;;;;6.97;2.97;;;12.80;99.90;;;;;;5112819;27;20789;-88
2023/06/01 06:35:23;;;;;;;6.70;2.60;;;12.80;99.90;;;;;;5111978;27;20397;-89
2023/06/01 06:37:48;;;;;;;8.57;1.87;;;12.80;99.90;;;;;;5112444;27;20918;-89
2023/06/01 06:40:14;;;;;;;6.03;2.00;;;12.90;99.90;;;;;;5112350;27;20389;-89
2023/06/01 06:42:40;;;;;;;5.57;2.00;;;12.90;99.90;;;;;;5112293;27;20428;-87
2023/06/01 06:45:06;;;;;;;5.93;2.03;;;13.00;99.90;;;;;;5111947;27;20487;-89
2023/06/01 06:47:32;;;;;;;5.95;1.95;;;13.00;99.90;;;;;;5112471;27;20440;-89
2023/06/01 06:49:58;;;;;;;5.20;2.10;;;13.00;99.90;;;;;;5111605;27;20722;-87
2023/06/01 06:52:23;;;;;;;4.78;2.10;;;13.00;99.90;;;;;;5129265;27;20937;-89
2023/06/01 06:54:49;;;;;;;6.53;2.40;;;13.00;99.90;;;;;;5112132;27;20409;-89
2023/06/01 06:57:14;;;;;;;6.00;1.95;;;13.00;99.90;;;;;;5112384;27;20389;-88
2023/06/01 06:59:40;;;;;;;5.30;1.80;;;13.00;99.90;;;;;;5112337;27;20409;-88
2023/06/01 07:02:06;;;;;;;5.22;2.00;;;13.20;99.90;;;;;;5112014;27;20919;-89
2023/06/01 07:04:31;;;;;;;7.38;2.30;;;13.20;99.90;;;;;;5114052;27;20914;-90
2023/06/01 07:06:57;;;;;;;8.33;2.53;;;13.30;99.90;;;;;;5116295;27;20385;-90
2023/06/01 07:09:23;;;;;;;6.30;1.80;;;13.30;99.90;;;;;;5116653;27;20408;-88
2023/06/01 07:11:48;;;;;;;4.57;1.40;;;13.40;99.90;;;;;;5116303;27;20408;-88
2023/06/01 07:14:15;;;;;;;4.83;1.23;;;13.70;99.90;;;;;;5116252;27;20471;-88
2023/06/01 07:16:40;;;;;;;5.30;1.30;;;13.40;99.90;;;;;;5116052;27;20479;-89
2023/06/01 07:19:07;;;;;;;4.68;1.30;;;13.40;99.90;;;;;;5115690;27;20488;-89
2023/06/01 07:21:33;;;;;;;5.75;1.30;;;13.30;99.90;;;;;;5116055;27;20433;-89
2023/06/01 07:23:58;;;;;;;4.63;1.38;;;13.30;99.90;;;;;;5116050;27;20752;-89
2023/06/01 07:26:26;;;;;;;6.40;1.58;;;13.50;99.90;;;;;;5115984;27;20401;-88
2023/06/01 07:28:53;;;;;;;3.92;1.58;;;13.90;99.90;;;;;;5116057;27;20393;-88
2023/06/01 07:31:20;;;;;;;6.03;1.70;;;13.80;99.90;;;;;;5115759;27;20401;-89
2023/06/01 07:33:45;;;;;;;4.20;1.80;;;14.00;99.90;;;;;;5115523;27;20393;-88
2023/06/01 07:36:11;;;;;;;4.77;1.57;;;13.70;99.90;;;;;;5115152;27;20404;-89
2023/06/01 07:38:37;;;;;;;7.32;1.60;;;13.80;99.90;;;;;;5116012;27;20873;-88
2023/06/01 07:41:03;;;;;;;6.18;1.80;;;13.60;99.90;;;;;;5132584;27;20405;-89
2023/06/01 07:43:29;;;;;;;3.65;1.13;;;13.50;99.90;;;;;;5115440;27;20728;-89
2023/06/01 07:45:55;;;;;;;3.93;0.90;;;13.70;99.90;;;;;;5114772;27;20495;-88
2023/06/01 07:48:21;;;;;;;3.90;1.10;;;13.50;99.90;;;;;;5114952;27;20401;-88
2023/06/01 07:50:47;;;;;;;5.20;1.30;;;13.60;99.90;;;;;;5114623;27;20404;-88
2023/06/01 07:53:13;;;;;;;4.70;1.10;;;13.60;99.90;;;;;;5114808;27;20497;-89
2023/06/01 07:55:39;;;;;;;5.25;1.48;;;13.80;99.90;;;;;;5132190;27;20883;-87
2023/06/01 07:58:05;;;;;;;5.25;1.65;;;14.00;99.90;;;;;;5114938;27;20480;-88
2023/06/01 08:00:31;;;;;;;6.82;1.77;;;13.90;99.90;;;;;;5114922;27;20427;-89
2023/06/01 08:02:58;;;;;;;5.93;1.60;;;14.10;99.90;;;;;;5114732;27;20428;-90
2023/06/01 08:05:24;;;;;;;7.03;1.92;;;13.90;99.90;;;;;;5115049;27;20396;-87
2023/06/01 08:07:50;;;;;;;7.93;2.50;;;13.90;99.90;;;;;;5114631;27;20385;-88
2023/06/01 08:10:16;;;;;;;5.75;2.20;;;13.80;99.90;;;;;;5115266;27;20394;-88
2023/06/01 08:12:44;;;;;;;7.25;2.13;;;13.90;99.90;;;;;;5131870;27;20389;-88
2023/06/01 08:15:11;;;;;;;7.93;2.17;;;13.70;99.90;;;;;;5113468;27;20480;-88
2023/06/01 08:17:38;;;;;;;7.13;2.30;;;13.70;99.90;;;;;;5114175;27;20407;-87
2023/06/01 08:20:10;;;;;;;9.10;2.40;;;13.60;99.90;;;;;;5115007;27;20483;-90
2023/06/01 08:22:36;;;;;;;9.77;3.08;;;13.60;99.90;;;;;;5114770;27;20413;-89
2023/06/01 08:25:03;;;;;;;10.27;3.30;;;13.50;99.90;;;;;;5114142;27;20485;-88
2023/06/01 08:27:28;;;;;;;9.40;2.80;;;13.50;99.90;;;;;;5131727;27;20444;-89
2023/06/01 08:29:54;;;;;;;9.00;2.90;;;13.50;99.90;;;;;;5114622;27;20533;-88
2023/06/01 08:32:20;;;;;;;9.38;2.80;;;13.70;99.90;;;;;;5114359;27;20543;-89
2023/06/01 08:34:46;;;;;;;10.20;2.88;;;13.40;99.90;;;;;;5114658;27;20401;-88
2023/06/01 08:37:16;;;;;;;9.18;2.50;;;13.40;99.90;;;;;;5149764;27;20406;-88
2023/06/01 08:39:41;;;;;;;7.85;2.50;;;13.50;99.90;;;;;;5114250;27;20444;-87
2023/06/01 08:42:30;;;;;;;9.30;2.65;;;13.50;99.90;;;;;;5113639;27;20950;-87
2023/06/01 08:44:58;;;;;;;9.00;2.07;;;13.60;99.90;;;;;;5113994;27;20397;-89
2023/06/01 08:47:28;;;;;;;6.45;1.90;;;13.60;99.90;;;;;;5114108;27;20402;-88
2023/06/01 08:49:55;;;;;;;8.05;2.45;;;14.00;99.90;;;;;;5131148;27;20481;-89
2023/06/01 08:52:24;;;;;;;8.27;2.22;;;13.80;99.90;;;;;;5114143;27;20385;-90
2023/06/01 08:54:50;;;;;;;8.85;2.55;;;13.80;99.90;;;;;;5130966;27;20453;-89
2023/06/01 08:57:16;;;;;;;9.23;2.60;;;14.00;99.90;;;;;;5114502;27;20759;-88
2023/06/01 08:59:45;;;;;;;8.63;2.28;;;14.40;99.90;;;;;;5113361;27;20393;-88
2023/06/01 09:02:10;;;;;;;9.32;2.35;;;14.10;99.90;;;;;;5130785;27;20428;-89
2023/06/01 09:04:41;;;;;;;12.20;2.63;;;14.10;99.90;;;;;;5149541;27;20404;-89
2023/06/01 09:07:07;;;;;;;9.60;2.50;;;14.10;99.90;;;;;;5113619;27;20393;-89
2023/06/01 09:09:33;;;;;;;10.83;2.23;;;14.20;99.90;;;;;;5131054;27;20457;-88
2023/06/01 09:12:30;;;;;;;10.45;2.30;;;14.10;99.90;;;;;;5130682;27;20476;-88
2023/06/01 09:15:16;;;;;;;8.63;1.95;;;14.00;99.90;;;;;;5113843;27;20393;-89
2023/06/01 09:17:43;;;;;;;7.85;1.50;;;14.00;99.90;;;;;;5113562;27;20409;-89
2023/06/01 09:20:28;;;;;;;8.48;1.80;;;14.00;99.90;;;;;;5113501;27;20887;-89
2023/06/01 09:22:55;;;;;;;6.65;1.50;;;14.10;99.90;;;;;;5113515;27;20466;-88
2023/06/01 09:25:29;;;;;;;7.67;1.40;;;13.90;99.90;;;;;;5113072;27;20436;-88
2023/06/01 09:27:57;;;;;;;7.00;1.47;;;14.70;99.90;;;;;;5113214;27;20902;-89
2023/06/01 09:30:25;;;;;;;6.95;1.40;;;14.30;99.90;;;;;;5113193;27;20480;-88
2023/06/01 09:32:52;;;;;;;8.02;1.55;;;14.60;99.90;;;;;;5112866;27;20487;-88
2023/06/01 09:35:43;;;;;;;7.93;1.67;;;14.70;99.90;;;;;;5130177;27;20804;-88
2023/06/01 09:38:10;;;;;;;6.30;1.42;;;14.50;99.90;;;;;;5112739;27;20412;-88
2023/06/01 09:40:38;;;;;;;8.13;1.58;;;14.40;99.90;;;;;;5113092;27;20425;-88
2023/06/01 09:43:18;;;;;;;8.32;1.60;;;14.40;99.90;;;;;;5112512;27;20424;-88
2023/06/01 09:45:43;;;;;;;7.30;1.40;;;14.40;99.90;;;;;;5113058;27;20489;-90
2023/06/01 09:48:18;;;;;;;7.47;1.60;;;14.20;99.90;;;;;;5113522;27;20986;-87
2023/06/01 09:50:44;;;;;;;7.03;1.38;;;14.20;99.90;;;;;;5113227;27;20752;-88
2023/06/01 09:53:10;;;;;;;7.32;1.48;;;14.30;99.90;;;;;;5112875;27;20405;-87
2023/06/01 09:55:36;;;;;;;5.47;1.25;;;14.40;99.90;;;;;;5129775;27;20436;-88
2023/06/01 09:58:21;;;;;;;8.07;1.73;;;14.30;99.90;;;;;;5129880;27;20393;-87
2023/06/01 10:00:49;;;;;;;6.07;1.20;;;14.70;99.90;;;;;;5112548;27;20400;-89
2023/06/01 10:03:15;;;;;;;6.63;1.60;;;14.60;99.90;;;;;;5129508;27;20416;-87
2023/06/01 10:05:42;;;;;;;8.02;1.80;;;14.60;99.90;;;;;;5112096;27;20393;-87
2023/06/01 10:08:13;;;;;;;6.57;1.50;;;14.70;99.90;;;;;;5129666;27;20401;-90
2023/06/01 10:10:40;;;;;;;7.20;1.80;;;14.80;99.90;;;;;;5112575;27;20393;-89
2023/06/01 10:13:06;;;;;;;5.95;1.48;;;14.90;99.90;;;;;;5111850;27;20408;-88
2023/06/01 10:15:33;;;;;;;8.10;1.60;;;14.90;99.90;;;;;;5112444;27;20393;-88
2023/06/01 10:18:06;;;;;;;7.40;2.20;;;14.90;99.90;;;;;;5112345;27;20393;-89
2023/06/01 10:20:33;;;;;;;9.07;2.20;;;15.00;99.90;;;;;;5112298;27;20428;-87
2023/06/01 10:23:00;;;;;;;6.55;1.50;;;15.00;99.90;;;;;;5112608;27;20444;-89
2023/06/01 10:25:35;;;;;;;7.50;1.67;;;15.10;99.90;;;;;;5111810;27;20740;-87
2023/06/01 10:28:09;;;;;;;6.57;1.45;;;14.90;99.90;;;;;;5112124;27;20401;-88
2023/06/01 10:30:35;;;;;;;8.97;1.63;;;14.80;99.90;;;;;;5111859;27;20721;-89
2023/06/01 10:33:01;;;;;;;6.57;1.63;;;14.90;99.90;;;;;;5112204;27;20472;-88
2023/06/01 10:35:33;;;;;;;5.57;1.37;;;14.90;99.90;;;;;;5112191;27;20396;-88
2023/06/01 10:38:09;;;;;;;6.25;1.60;;;14.90;99.90;;;;;;5128600;27;20389;-89
2023/06/01 10:40:39;;;;;;;6.70;2.00;;;15.00;99.90;;;;;;5111982;27;20404;-88
2023/06/01 10:43:05;;;;;;;7.15;2.13;;;15.20;99.90;;;;;;5111480;27;20486;-89
2023/06/01 10:45:40;;;;;;;6.70;1.83;;;15.60;99.90;;;;;;5111971;27;20396;-88
2023/06/01 10:48:11;;;;;;;4.85;1.52;;;15.20;99.90;;;;;;5111668;27;20457;-89
2023/06/01 10:50:37;;;;;;;8.40;1.80;;;15.10;99.90;;;;;;5111719;27;20409;-88
2023/06/01 10:53:28;;;;;;;7.00;1.90;;;15.10;99.90;;;;;;5129314;27;20794;-88
2023/06/01 10:56:26;;;;;;;8.05;2.28;;;15.10;99.90;;;;;;5111716;27;20476;-88
2023/06/01 10:59:07;;;;;;;8.48;2.15;;;15.10;99.90;;;;;;5129035;27;20403;-88
2023/06/01 11:01:44;;;;;;;5.90;1.80;;;15.20;99.90;;;;;;5112020;27;20911;-89
2023/06/01 11:04:10;;;;;;;7.82;1.55;;;15.10;99.90;;;;;;5128880;27;20405;-89
2023/06/01 11:06:39;;;;;;;7.03;1.50;;;15.30;99.90;;;;;;5111403;27;20397;-88
2023/06/01 11:09:07;;;;;;;5.47;1.20;;;15.30;99.90;;;;;;5111587;27;20425;-89
2023/06/01 11:11:48;;;;;;;5.60;1.17;;;15.60;99.90;;;;;;5111518;27;20404;-89
2023/06/01 11:14:15;;;;;;;4.35;1.20;;;15.50;99.90;;;;;;5128519;27;20926;-87
2023/06/01 11:16:40;;;;;;;4.97;1.42;;;15.60;99.90;;;;;;5111362;27;20416;-88
2023/06/01 11:19:08;;;;;;;5.40;1.37;;;15.40;99.90;;;;;;5111135;27;20393;-89
2023/06/01 11:21:40;;;;;;;6.03;1.60;;;15.60;99.90;;;;;;5111750;27;20775;-88
2023/06/01 11:24:16;;;;;;;6.72;2.03;;;15.40;99.90;;;;;;5111285;27;20441;-89
2023/06/01 11:26:44;;;;;;;5.43;1.50;;;15.50;99.90;;;;;;5111364;27;20409;-87
2023/06/01 11:29:15;;;;;;;5.82;1.60;;;15.50;99.90;;;;;;5111548;27;20392;-89
2023/06/01 11:31:43;;;;;;;5.07;1.52;;;15.50;99.90;;;;;;5128505;27;20401;-88
2023/06/01 11:34:10;;;;;;;3.65;1.08;;;15.60;99.90;;;;;;5128293;27;20454;-88
2023/06/01 11:36:38;;;;;;;4.25;1.10;;;15.60;99.90;;;;;;5111513;27;20974;-88
2023/06/01 11:39:08;;;;;;;4.10;1.10;;;15.70;99.90;;;;;;5127880;27;20578;-87
2023/06/01 11:41:35;;;;;;;5.28;1.10;;;15.60;99.90;;;;;;5127972;27;20903;-87
2023/06/01 11:44:01;;;;;;;7.03;1.70;;;15.60;99.90;;;;;;5111007;27;20389;-88
2023/06/01 11:46:28;;;;;;;5.23;1.50;;;15.60;99.90;;;;;;5111748;27;20480;-88
2023/06/01 11:49:05;;;;;;;6.35;1.30;;;15.50;99.90;;;;;;5146803;27;20433;-89
2023/06/01 11:51:37;;;;;;;7.37;1.57;;;15.50;99.90;;;;;;5114205;27;20412;-88
2023/06/01 11:54:03;;;;;;;6.60;1.60;;;15.70;99.90;;;;;;5114930;27;20405;-88
2023/06/01 11:56:30;;;;;;;6.22;1.80;;;15.40;99.90;;;;;;5115136;27;20527;-88
2023/06/01 11:59:11;;;;;;;6.28;2.00;;;15.30;99.90;;;;;;5115048;27;20396;-88
2023/06/01 12:01:45;;;;;;;7.30;1.70;;;15.60;99.90;;;;;;5114801;27;20421;-88
2023/06/01 12:04:19;;;;;;;6.18;1.52;;;15.20;99.90;;;;;;5110180;27;20407;-88
2023/06/01 12:06:45;;;;;;;8.23;1.90;;;15.20;99.90;;;;;;5114640;27;20408;-87
2023/06/01 12:09:13;;;;;;;10.65;2.28;;;15.30;99.90;;;;;;5131806;27;20408;-88
2023/06/01 12:11:40;;;;;;;7.05;1.83;;;15.50;99.90;;;;;;5131785;27;20971;-87
2023/06/01 12:14:06;;;;;;;10.10;2.20;;;15.40;99.90;;;;;;5131538;27;20399;-89
2023/06/01 12:16:56;;;;;;;7.63;1.90;;;15.50;99.90;;;;;;5131741;27;20389;-89
2023/06/01 12:19:22;;;;;;;9.93;2.55;;;15.50;99.90;;;;;;5114308;27;20560;-88
2023/06/01 12:21:56;;;;;;;6.32;1.70;;;15.40;99.90;;;;;;5114498;27;20820;-89
2023/06/01 12:24:35;;;;;;;6.93;1.90;;;15.50;99.90;;;;;;5131773;27;20409;-87
2023/06/01 12:27:02;;;;;;;5.55;1.33;;;15.80;99.90;;;;;;5114246;27;20405;-89
2023/06/01 12:29:46;;;;;;;4.78;1.77;;;15.70;99.90;;;;;;5114814;27;20396;-88
2023/06/01 12:32:14;;;;;;;5.18;1.42;;;15.60;99.90;;;;;;5114543;27;20419;-88
2023/06/01 12:34:47;;;;;;;6.95;1.50;;;15.70;99.90;;;;;;5114205;27;20778;-89
2023/06/01 12:37:20;;;;;;;7.32;1.77;;;15.70;99.90;;;;;;5114282;27;20876;-87
2023/06/01 12:39:53;;;;;;;7.63;1.75;;;15.50;99.90;;;;;;5114312;27;20789;-90
2023/06/01 12:42:20;;;;;;;7.18;1.92;;;15.40;99.90;;;;;;5113999;27;20420;-88
2023/06/01 12:44:55;;;;;;;8.73;2.20;;;15.20;99.90;;;;;;5131062;27;20396;-88
2023/06/01 12:47:21;;;;;;;10.45;2.97;;;15.20;99.90;;;;;;5113814;27;20792;-89
2023/06/01 12:50:06;;;;;;;8.27;2.30;;;15.20;99.90;;;;;;5130672;27;20460;-88
2023/06/01 12:52:32;;;;;;;9.07;2.20;;;15.10;99.90;;;;;;5130858;27;20451;-89